createdAt,value
2019-06-01T00:00:37.939Z,99.90
2019-06-01T00:03:06.482Z,99.90
2019-06-01T00:05:34.925Z,99.90
2019-06-01T00:08:03.394Z,99.90
2019-06-01T00:10:31.837Z,99.90
2019-06-01T00:13:00.609Z,99.90
2019-06-01T00:15:29.401Z,99.90
2019-06-01T00:17:57.885Z,99.90
2019-06-01T00:20:26.405Z,99.90
2019-06-01T00:22:54.867Z,99.90
2019-06-01T00:25:23.667Z,99.90
2019-06-01T00:27:52.877Z,99.90
2019-06-01T00:30:26.917Z,99.90
2019-06-01T00:32:54.079Z,99.90
2019-06-01T00:35:22.589Z,99.90
2019-06-01T00:37:52.909Z,99.90
2019-06-01T00:40:21.415Z,99.90
2019-06-01T00:42:50.303Z,99.90
2019-06-01T00:45:21.368Z,99.90
2019-06-01T00:47:50.924Z,99.90
2019-06-01T00:50:19.551Z,99.90
2019-06-01T00:52:49.265Z,99.90
2019-06-01T00:55:18.029Z,99.90
2019-06-01T00:57:47.557Z,99.90
2019-06-01T01:00:25.536Z,99.90
2019-06-01T01:02:57.696Z,99.90
2019-06-01T01:05:26.700Z,99.90
2019-06-01T01:07:57.922Z,99.90
2019-06-01T01:10:26.704Z,99.90
2019-06-01T01:13:13.857Z,99.90
2019-06-01T01:15:42.848Z,99.90
2019-06-01T01:18:12.223Z,99.90
2019-06-01T01:20:41.128Z,99.90
2019-06-01T01:23:30.688Z,99.90
2019-06-01T01:25:59.197Z,99.90
2019-06-01T01:28:27.640Z,99.90
2019-06-01T01:31:06.859Z,99.90
2019-06-01T01:33:26.315Z,99.90
2019-06-01T01:35:55.843Z,99.90
2019-06-01T01:38:24.503Z,99.90
2019-06-01T01:40:54.112Z,99.90
2019-06-01T01:43:22.765Z,99.90
2019-06-01T01:45:51.237Z,99.90
2019-06-01T01:48:19.667Z,99.90
2019-06-01T01:50:48.120Z,99.90
2019-06-01T01:53:16.888Z,99.90
2019-06-01T01:55:45.673Z,99.90
2019-06-01T01:58:14.365Z,99.90
2019-06-01T02:00:45.614Z,99.90
2019-06-01T02:03:14.130Z,99.90
2019-06-01T02:05:42.772Z,99.90
2019-06-01T02:08:11.556Z,99.90
2019-06-01T02:10:40.081Z,99.90
2019-06-01T02:13:08.789Z,99.90
2019-06-01T02:15:38.891Z,99.90
2019-06-01T02:18:07.765Z,99.90
2019-06-01T02:20:36.411Z,99.90
2019-06-01T02:23:06.246Z,99.90
2019-06-01T02:25:35.376Z,99.90
2019-06-01T02:28:03.912Z,99.90
2019-06-01T02:30:32.356Z,99.90
2019-06-01T02:33:02.399Z,99.90
2019-06-01T02:35:31.031Z,99.90
2019-06-01T02:38:00.357Z,99.90
2019-06-01T02:40:29.305Z,99.90
2019-06-01T02:42:59.239Z,99.90
2019-06-01T02:45:28.735Z,99.90
2019-06-01T02:47:57.572Z,99.90
2019-06-01T02:50:26.841Z,99.90
2019-06-01T02:52:55.506Z,99.90
2019-06-01T02:55:24.200Z,99.90
2019-06-01T02:57:52.947Z,99.90
2019-06-01T03:00:39.148Z,99.90
2019-06-01T03:03:07.933Z,99.90
2019-06-01T03:05:37.661Z,99.90
2019-06-01T03:08:07.764Z,99.90
2019-06-01T03:10:38.044Z,99.90
2019-06-01T03:13:09.968Z,99.90
2019-06-01T03:15:41.824Z,99.90
2019-06-01T03:18:13.087Z,99.90
2019-06-01T03:20:44.949Z,99.90
2019-06-01T03:23:16.471Z,99.90
2019-06-01T03:25:49.142Z,99.90
2019-06-01T03:28:20.928Z,99.90
2019-06-01T03:30:49.733Z,99.90
2019-06-01T03:33:18.512Z,99.90
2019-06-01T03:35:47.955Z,99.90
2019-06-01T03:38:16.712Z,99.90
2019-06-01T03:40:45.501Z,99.90
2019-06-01T03:43:14.132Z,99.90
2019-06-01T03:45:42.565Z,99.90
2019-06-01T03:48:11.001Z,99.90
2019-06-01T03:50:45.684Z,99.90
2019-06-01T03:53:14.132Z,99.90
2019-06-01T03:55:42.866Z,99.90
2019-06-01T03:58:11.317Z,99.90
2019-06-01T04:00:40.138Z,99.90
2019-06-01T04:03:09.199Z,99.90
2019-06-01T04:05:38.132Z,99.90
2019-06-01T04:08:07.505Z,99.90
2019-06-01T04:10:36.538Z,99.90
2019-06-01T04:13:05.648Z,99.90
2019-06-01T04:15:34.392Z,99.90
2019-06-01T04:18:03.914Z,99.90
2019-06-01T04:20:32.456Z,99.90
2019-06-01T04:23:01.971Z,99.90
2019-06-01T04:25:32.576Z,99.90
2019-06-01T04:28:02.122Z,99.90
2019-06-01T04:30:31.484Z,99.90
2019-06-01T04:33:00.005Z,99.90
2019-06-01T04:35:28.770Z,99.90
2019-06-01T04:37:57.560Z,99.90
2019-06-01T04:40:26.003Z,99.90
2019-06-01T04:42:54.440Z,99.90
2019-06-01T04:45:23.209Z,99.90
2019-06-01T04:47:51.896Z,99.90
2019-06-01T04:50:20.368Z,99.90
2019-06-01T04:52:48.882Z,99.90
2019-06-01T04:55:17.663Z,99.90
2019-06-01T04:57:46.359Z,99.90
2019-06-01T05:00:27.112Z,99.90
2019-06-01T05:02:45.634Z,99.90
2019-06-01T05:05:15.468Z,99.90
2019-06-01T05:07:44.167Z,99.90
2019-06-01T05:10:14.265Z,99.90
2019-06-01T05:12:44.124Z,99.90
2019-06-01T05:15:15.955Z,99.90
2019-06-01T05:17:44.732Z,99.90
2019-06-01T05:20:14.709Z,99.90
2019-06-01T05:22:43.696Z,99.90
2019-06-01T05:25:15.303Z,99.90
2019-06-01T05:27:44.144Z,99.90
2019-06-01T05:30:13.694Z,99.90
2019-06-01T05:32:42.545Z,99.90
2019-06-01T05:35:11.840Z,99.90
2019-06-01T05:37:40.370Z,99.90
2019-06-01T05:40:10.589Z,99.90
2019-06-01T05:42:39.077Z,99.90
2019-06-01T05:45:09.269Z,99.90
2019-06-01T05:47:38.167Z,99.90
2019-06-01T05:50:07.469Z,99.90
2019-06-01T05:52:36.279Z,99.90
2019-06-01T05:55:06.516Z,99.90
2019-06-01T05:57:34.961Z,99.90
2019-06-01T06:00:05.718Z,99.90
2019-06-01T06:02:34.507Z,99.90
2019-06-01T06:05:03.136Z,99.40
2019-06-01T06:07:31.608Z,99.90
2019-06-01T06:10:00.060Z,99.90
2019-06-01T06:12:28.856Z,99.90
2019-06-01T06:14:57.650Z,99.40
2019-06-01T06:17:26.083Z,98.70
2019-06-01T06:19:54.780Z,98.50
2019-06-01T06:22:23.227Z,98.30
2019-06-01T06:24:52.100Z,98.60
2019-06-01T06:27:20.731Z,98.50
2019-06-01T06:29:49.265Z,98.30
2019-06-01T06:32:17.732Z,96.90
2019-06-01T06:34:46.448Z,96.40
2019-06-01T06:37:15.629Z,95.60
2019-06-01T06:39:44.173Z,94.80
2019-06-01T06:42:12.626Z,94.40
2019-06-01T06:44:41.422Z,95.20
2019-06-01T06:47:10.384Z,94.30
2019-06-01T06:49:38.831Z,93.00
2019-06-01T06:52:07.292Z,93.90
2019-06-01T06:54:36.080Z,94.20
2019-06-01T06:57:04.554Z,94.10
2019-06-01T06:59:32.977Z,94.60
2019-06-01T07:02:01.835Z,93.90
2019-06-01T07:04:30.625Z,94.10
2019-06-01T07:06:59.448Z,93.30
2019-06-01T07:09:28.315Z,92.50
2019-06-01T07:11:56.995Z,92.70
2019-06-01T07:14:25.556Z,92.60
2019-06-01T07:16:54.160Z,92.20
2019-06-01T07:19:23.759Z,90.50
2019-06-01T07:21:52.707Z,90.40
2019-06-01T07:24:21.744Z,88.10
2019-06-01T07:26:50.580Z,87.60
2019-06-01T07:29:19.983Z,86.10
2019-06-01T07:31:48.670Z,87.60
2019-06-01T07:34:30.779Z,86.80
2019-06-01T07:36:47.627Z,87.10
2019-06-01T07:39:16.126Z,85.00
2019-06-01T07:41:46.647Z,87.00
2019-06-01T07:44:14.829Z,85.00
2019-06-01T07:46:43.268Z,86.10
2019-06-01T07:49:11.726Z,87.00
2019-06-01T07:51:40.230Z,86.40
2019-06-01T07:54:08.673Z,86.10
2019-06-01T07:56:37.117Z,88.30
2019-06-01T07:59:05.558Z,88.00
2019-06-01T08:01:34.075Z,88.50
2019-06-01T08:04:02.961Z,87.20
2019-06-01T08:06:32.706Z,86.10
2019-06-01T08:09:01.420Z,88.30
2019-06-01T08:11:32.829Z,87.50
2019-06-01T08:14:00.220Z,84.60
2019-06-01T08:16:29.907Z,85.20
2019-06-01T08:18:58.822Z,86.80
2019-06-01T08:21:28.110Z,88.00
2019-06-01T08:23:56.996Z,86.40
2019-06-01T08:26:26.482Z,84.70
2019-06-01T08:28:55.015Z,84.10
2019-06-01T08:31:24.528Z,83.60
2019-06-01T08:33:53.077Z,83.20
2019-06-01T08:36:23.096Z,83.20
2019-06-01T08:38:51.735Z,82.30
2019-06-01T08:41:20.235Z,80.90
2019-06-01T08:43:48.667Z,83.40
2019-06-01T08:46:18.030Z,85.20
2019-06-01T08:48:46.514Z,85.20
2019-06-01T08:51:15.020Z,83.60
2019-06-01T08:53:43.448Z,82.40
2019-06-01T08:56:11.918Z,82.10
2019-06-01T08:58:41.533Z,82.60
2019-06-01T09:01:10.321Z,82.20
2019-06-01T09:03:45.582Z,82.90
2019-06-01T09:06:09.259Z,81.80
2019-06-01T09:08:37.705Z,80.80
2019-06-01T09:11:06.155Z,81.90
2019-06-01T09:13:35.477Z,81.60
2019-06-01T09:16:04.274Z,81.20
2019-06-01T09:18:33.691Z,80.80
2019-06-01T09:21:02.645Z,81.60
2019-06-01T09:23:50.863Z,80.20
2019-06-01T09:26:19.642Z,79.00
2019-06-01T09:28:48.088Z,79.90
2019-06-01T09:31:16.630Z,80.60
2019-06-01T09:33:45.125Z,80.20
2019-06-01T09:36:13.554Z,80.70
2019-06-01T09:38:42.265Z,80.50
2019-06-01T09:41:10.735Z,79.80
2019-06-01T09:43:39.949Z,80.00
2019-06-01T09:46:08.489Z,80.50
2019-06-01T09:48:37.847Z,80.00
2019-06-01T09:51:06.850Z,79.60
2019-06-01T09:53:36.169Z,80.20
2019-06-01T09:56:05.563Z,81.00
2019-06-01T09:58:34.639Z,80.20
2019-06-01T10:01:03.457Z,79.20
2019-06-01T10:03:32.496Z,80.10
2019-06-01T10:06:02.481Z,81.30
2019-06-01T10:08:32.561Z,82.20
2019-06-01T10:11:02.700Z,81.70
2019-06-01T10:13:32.926Z,79.90
2019-06-01T10:16:01.368Z,80.50
2019-06-01T10:18:30.862Z,79.70
2019-06-01T10:20:59.461Z,81.10
2019-06-01T10:23:28.301Z,82.00
2019-06-01T10:25:56.732Z,80.70
2019-06-01T10:28:25.701Z,81.50
2019-06-01T10:30:54.125Z,80.70
2019-06-01T10:33:22.970Z,80.80
2019-06-01T10:35:51.724Z,77.40
2019-06-01T10:38:20.441Z,79.20
2019-06-01T10:40:49.335Z,79.20
2019-06-01T10:43:18.720Z,78.50
2019-06-01T10:45:47.171Z,80.40
2019-06-01T10:48:20.035Z,81.40
2019-06-01T10:50:48.818Z,82.10
2019-06-01T10:53:17.269Z,79.70
2019-06-01T10:55:46.442Z,79.00
2019-06-01T10:58:14.875Z,77.60
2019-06-01T11:00:50.508Z,75.80
2019-06-01T11:03:15.755Z,75.20
2019-06-01T11:05:44.756Z,75.90
2019-06-01T11:08:13.180Z,77.80
2019-06-01T11:10:41.650Z,78.80
2019-06-01T11:13:10.396Z,79.40
2019-06-01T11:15:39.353Z,76.20
2019-06-01T11:18:08.240Z,76.70
2019-06-01T11:20:37.268Z,77.90
2019-06-01T11:23:06.418Z,77.80
2019-06-01T11:25:35.592Z,77.70
2019-06-01T11:28:04.407Z,78.80
2019-06-01T11:30:33.563Z,78.40
2019-06-01T11:33:02.133Z,77.60
2019-06-01T11:35:31.026Z,79.40
2019-06-01T11:37:59.480Z,78.90
2019-06-01T11:40:27.927Z,77.70
2019-06-01T11:42:56.646Z,77.00
2019-06-01T11:45:25.578Z,74.90
2019-06-01T11:47:54.326Z,74.70
2019-06-01T11:50:24.035Z,75.50
2019-06-01T11:52:53.513Z,76.40
2019-06-01T11:55:21.999Z,75.70
2019-06-01T11:57:50.441Z,76.40
2019-06-01T12:00:19.444Z,75.10
2019-06-01T12:02:48.192Z,74.80
2019-06-01T12:05:17.303Z,74.60
2019-06-01T12:07:46.068Z,74.60
2019-06-01T12:10:16.808Z,73.50
2019-06-01T12:12:46.476Z,71.80
2019-06-01T12:15:15.359Z,71.70
2019-06-01T12:17:44.818Z,71.10
2019-06-01T12:20:14.249Z,70.90
2019-06-01T12:22:42.993Z,70.10
2019-06-01T12:25:12.234Z,68.70
2019-06-01T12:27:41.580Z,67.20
2019-06-01T12:30:10.911Z,67.00
2019-06-01T12:32:39.869Z,66.00
2019-06-01T12:35:08.710Z,67.30
2019-06-01T12:38:22.264Z,68.60
2019-06-01T12:40:09.169Z,67.90
2019-06-01T12:42:37.953Z,68.10
2019-06-01T12:45:07.428Z,67.10
2019-06-01T12:47:35.895Z,66.90
2019-06-01T12:50:07.078Z,65.70
2019-06-01T12:52:35.592Z,66.80
2019-06-01T12:55:05.723Z,64.10
2019-06-01T12:57:34.532Z,61.90
2019-06-01T13:00:03.054Z,62.10
2019-06-01T13:02:31.486Z,61.40
2019-06-01T13:05:00.282Z,61.60
2019-06-01T13:07:29.072Z,63.70
2019-06-01T13:09:57.762Z,63.70
2019-06-01T13:12:26.212Z,63.40
2019-06-01T13:14:54.940Z,63.50
2019-06-01T13:17:23.393Z,63.70
2019-06-01T13:19:51.841Z,63.70
2019-06-01T13:22:20.348Z,62.70
2019-06-01T13:24:49.859Z,63.40
2019-06-01T13:27:40.810Z,61.40
2019-06-01T13:30:08.824Z,61.10
2019-06-01T13:32:37.275Z,60.50
2019-06-01T13:35:08.213Z,60.40
2019-06-01T13:37:36.653Z,60.00
2019-06-01T13:40:06.492Z,60.30
2019-06-01T13:42:34.930Z,59.60
2019-06-01T13:45:05.430Z,59.70
2019-06-01T13:47:34.212Z,61.50
2019-06-01T13:50:06.490Z,63.20
2019-06-01T13:52:33.397Z,61.70
2019-06-01T13:55:01.882Z,60.60
2019-06-01T13:57:30.705Z,61.20
2019-06-01T13:59:59.148Z,59.80
2019-06-01T14:02:27.876Z,59.20
2019-06-01T14:04:56.317Z,58.80
2019-06-01T14:07:24.736Z,58.30
2019-06-01T14:09:53.762Z,57.10
2019-06-01T14:12:22.312Z,56.50
2019-06-01T14:14:51.530Z,57.00
2019-06-01T14:17:39.500Z,57.90
2019-06-01T14:20:08.523Z,58.90
2019-06-01T14:22:37.129Z,58.50
2019-06-01T14:25:14.211Z,59.50
2019-06-01T14:27:38.385Z,59.30
2019-06-01T14:30:08.127Z,59.40
2019-06-01T14:32:36.926Z,59.60
2019-06-01T14:35:08.622Z,59.20
2019-06-01T14:37:37.050Z,58.50
2019-06-01T14:40:07.189Z,56.90
2019-06-01T14:42:35.685Z,56.90
2019-06-01T14:45:08.883Z,56.70
2019-06-01T14:47:37.310Z,57.40
2019-06-01T14:50:08.205Z,57.60
2019-06-01T14:52:36.722Z,59.30
2019-06-01T14:55:07.080Z,60.20
2019-06-01T14:57:35.573Z,60.50
2019-06-01T15:00:09.814Z,59.90
2019-06-01T15:02:38.601Z,61.40
2019-06-01T15:05:08.189Z,61.10
2019-06-01T15:07:36.791Z,60.70
2019-06-01T15:10:07.771Z,61.00
2019-06-01T15:12:36.587Z,59.70
2019-06-01T15:15:08.340Z,60.30
2019-06-01T15:17:37.096Z,59.70
2019-06-01T15:20:10.318Z,60.10
2019-06-01T15:22:38.772Z,61.00
2019-06-01T15:25:08.568Z,59.20
2019-06-01T15:27:37.054Z,59.80
2019-06-01T15:30:07.713Z,60.00
2019-06-01T15:32:36.502Z,61.00
2019-06-01T15:35:07.750Z,61.20
2019-06-01T15:37:36.247Z,59.90
2019-06-01T15:40:12.083Z,60.00
2019-06-01T15:42:40.533Z,60.20
2019-06-01T15:45:09.976Z,59.90
2019-06-01T15:47:38.500Z,60.20
2019-06-01T15:50:08.996Z,60.20
2019-06-01T15:52:37.436Z,59.10
2019-06-01T15:55:07.616Z,60.10
2019-06-01T15:57:36.415Z,60.00
2019-06-01T16:00:09.325Z,61.20
2019-06-01T16:02:38.087Z,62.00
2019-06-01T16:05:07.364Z,62.20
2019-06-01T16:07:35.855Z,61.60
2019-06-01T16:10:08.345Z,61.20
2019-06-01T16:12:37.548Z,61.50
2019-06-01T16:15:10.125Z,61.50
2019-06-01T16:17:38.568Z,61.50
2019-06-01T16:20:08.240Z,62.90
2019-06-01T16:22:36.684Z,64.70
2019-06-01T16:25:07.030Z,64.00
2019-06-01T16:27:36.373Z,64.90
2019-06-01T16:30:08.588Z,64.10
2019-06-01T16:32:39.646Z,64.70
2019-06-01T16:35:07.941Z,64.70
2019-06-01T16:37:36.417Z,66.40
2019-06-01T16:40:09.907Z,66.80
2019-06-01T16:42:37.068Z,66.40
2019-06-01T16:45:07.748Z,66.70
2019-06-01T16:47:36.505Z,67.90
2019-06-01T16:50:09.255Z,66.70
2019-06-01T16:52:57.895Z,67.10
2019-06-01T16:55:26.568Z,68.90
2019-06-01T16:57:55.013Z,68.90
2019-06-01T17:00:23.792Z,68.10
2019-06-01T17:02:52.226Z,68.60
2019-06-01T17:05:20.852Z,68.50
2019-06-01T17:07:49.278Z,67.50
2019-06-01T17:10:26.181Z,68.60
2019-06-01T17:12:49.597Z,68.60
2019-06-01T17:15:18.111Z,69.80
2019-06-01T17:17:46.911Z,69.60
2019-06-01T17:20:47.183Z,71.10
2019-06-01T17:23:33.150Z,70.80
2019-06-01T17:25:46.061Z,69.20
2019-06-01T17:28:15.017Z,69.40
2019-06-01T17:30:43.536Z,70.00
2019-06-01T17:33:12.084Z,68.80
2019-06-01T17:35:40.531Z,68.80
2019-06-01T17:38:09.328Z,69.60
2019-06-01T17:40:42.560Z,70.60
2019-06-01T17:43:08.901Z,72.10
2019-06-01T17:45:37.865Z,72.80
2019-06-01T17:48:24.718Z,73.50
2019-06-01T17:50:39.436Z,74.00
2019-06-01T17:53:08.839Z,74.90
2019-06-01T17:55:39.216Z,75.50
2019-06-01T17:58:09.790Z,75.80
2019-06-01T18:00:39.113Z,76.80
2019-06-01T18:03:08.085Z,77.30
2019-06-01T18:05:39.862Z,78.10
2019-06-01T18:08:08.312Z,78.40
2019-06-01T18:10:52.378Z,78.30
2019-06-01T18:13:08.704Z,78.90
2019-06-01T18:15:37.692Z,79.30
2019-06-01T18:18:08.533Z,79.40
2019-06-01T18:20:37.686Z,79.90
2019-06-01T18:23:10.976Z,80.70
2019-06-01T18:25:39.304Z,80.60
2019-06-01T18:28:14.717Z,81.30
2019-06-01T18:30:38.019Z,82.40
2019-06-01T18:33:07.184Z,82.00
2019-06-01T18:35:35.765Z,83.10
2019-06-01T18:38:05.578Z,83.40
2019-06-01T18:40:34.850Z,84.00
2019-06-01T18:43:10.073Z,83.70
2019-06-01T18:45:39.848Z,84.30
2019-06-01T18:48:10.035Z,84.50
2019-06-01T18:50:38.601Z,85.30
2019-06-01T18:53:07.974Z,86.30
2019-06-01T18:55:36.676Z,86.10
2019-06-01T18:58:06.335Z,86.40
2019-06-01T19:00:39.330Z,87.50
2019-06-01T19:03:07.126Z,87.60
2019-06-01T19:05:36.188Z,88.00
2019-06-01T19:08:05.137Z,88.80
2019-06-01T19:10:34.249Z,90.00
2019-06-01T19:13:03.111Z,90.40
2019-06-01T19:15:31.577Z,90.30
2019-06-01T19:18:00.337Z,91.00
2019-06-01T19:20:28.780Z,91.00
2019-06-01T19:22:57.277Z,91.50
2019-06-01T19:25:25.932Z,92.00
2019-06-01T19:27:54.359Z,92.20
2019-06-01T19:30:37.629Z,92.40
2019-06-01T19:33:07.191Z,92.70
2019-06-01T19:35:38.170Z,93.20
2019-06-01T19:38:07.123Z,93.70
2019-06-01T19:40:37.868Z,94.30
2019-06-01T19:43:09.445Z,94.70
2019-06-01T19:45:38.423Z,95.40
2019-06-01T19:48:08.264Z,95.80
2019-06-01T19:50:36.976Z,96.20
2019-06-01T19:53:05.584Z,96.50
2019-06-01T19:55:34.204Z,96.90
2019-06-01T19:58:02.668Z,97.90
2019-06-01T20:00:31.421Z,98.30
2019-06-01T20:02:59.836Z,98.60
2019-06-01T20:05:28.298Z,98.80
2019-06-01T20:07:57.053Z,99.30
2019-06-01T20:10:26.407Z,99.40
2019-06-01T20:12:55.149Z,99.90
2019-06-01T20:15:24.760Z,99.90
2019-06-01T20:17:53.180Z,99.90
2019-06-01T20:20:23.059Z,99.90
2019-06-01T20:22:52.060Z,99.90
2019-06-01T20:25:21.783Z,99.90
2019-06-01T20:27:50.352Z,99.90
2019-06-01T20:30:22.063Z,99.90
2019-06-01T20:32:59.985Z,99.90
2019-06-01T20:35:30.598Z,99.90
2019-06-01T20:38:00.792Z,99.90
2019-06-01T20:40:31.436Z,99.90
2019-06-01T20:43:24.273Z,99.90
2019-06-01T20:45:56.667Z,99.90
2019-06-01T20:48:24.418Z,99.90
2019-06-01T20:50:53.755Z,99.90
2019-06-01T20:53:26.156Z,99.90
2019-06-01T20:55:55.308Z,99.90
2019-06-01T20:58:24.878Z,99.90
2019-06-01T21:00:53.793Z,99.90
2019-06-01T21:03:22.310Z,99.90
2019-06-01T21:05:51.828Z,99.90
2019-06-01T21:08:22.031Z,99.90
2019-06-01T21:10:52.079Z,99.90
2019-06-01T21:13:22.175Z,99.90
2019-06-01T21:15:51.926Z,99.90
2019-06-01T21:18:22.551Z,99.90
2019-06-01T21:20:56.867Z,99.90
2019-06-01T21:23:25.507Z,99.90
2019-06-01T21:25:54.026Z,99.90
2019-06-01T21:28:23.701Z,99.90
2019-06-01T21:30:52.667Z,99.90
2019-06-01T21:33:21.399Z,99.90
2019-06-01T21:35:51.347Z,99.90
2019-06-01T21:38:21.367Z,99.90
2019-06-01T21:40:49.996Z,99.90
2019-06-01T21:43:29.542Z,99.90
2019-06-01T21:45:51.193Z,99.90
2019-06-01T21:48:19.837Z,99.90
2019-06-01T21:50:48.451Z,99.90
2019-06-01T21:53:18.043Z,99.90
2019-06-01T21:55:46.647Z,99.90
2019-06-01T21:58:16.352Z,99.90
2019-06-01T22:00:46.714Z,99.90
2019-06-01T22:03:16.712Z,99.90
2019-06-01T22:05:45.351Z,99.90
2019-06-01T22:08:14.760Z,99.90
2019-06-01T22:10:43.870Z,99.90
2019-06-01T22:13:18.691Z,99.90
2019-06-01T22:15:42.779Z,99.90
2019-06-01T22:18:11.221Z,99.90
2019-06-01T22:20:39.879Z,99.90
2019-06-01T22:23:11.626Z,99.90
2019-06-01T22:25:38.810Z,99.90
2019-06-01T22:28:07.522Z,99.90
2019-06-01T22:30:37.233Z,99.90
2019-06-01T22:33:05.665Z,99.90
2019-06-01T22:35:34.448Z,99.90
2019-06-01T22:38:02.884Z,99.90
2019-06-01T22:40:31.505Z,99.90
2019-06-01T22:43:01.197Z,99.90
2019-06-01T22:45:30.003Z,99.90
2019-06-01T22:47:58.434Z,99.90
2019-06-01T22:50:27.071Z,99.90
2019-06-01T22:52:55.700Z,99.90
2019-06-01T22:55:24.401Z,99.90
2019-06-01T22:57:53.242Z,99.90
2019-06-01T23:00:23.636Z,99.90
2019-06-01T23:02:52.288Z,99.90
2019-06-01T23:05:20.939Z,99.90
2019-06-01T23:07:49.494Z,99.90
2019-06-01T23:10:17.936Z,99.90
2019-06-01T23:12:46.399Z,99.90
2019-06-01T23:15:15.758Z,99.90
2019-06-01T23:21:17.892Z,99.90
2019-06-01T23:23:52.352Z,99.90
2019-06-01T23:26:22.004Z,99.90
2019-06-01T23:29:09.961Z,99.90
2019-06-01T23:31:38.756Z,99.90
2019-06-01T23:34:17.197Z,99.90
2019-06-01T23:36:45.712Z,99.90
2019-06-01T23:39:14.531Z,99.90
2019-06-01T23:41:42.980Z,99.90
2019-06-01T23:44:12.607Z,99.90
2019-06-01T23:46:42.281Z,99.90
2019-06-01T23:49:10.712Z,99.90
2019-06-01T23:51:41.202Z,99.90
2019-06-01T23:54:17.671Z,99.90
2019-06-01T23:56:46.110Z,99.90
2019-06-01T23:59:34.342Z,99.90
